Arabi, Georgia
Current Conditions -  °F | °C
As of 5:15 AM on Tuesday 27 Jan 2015 (Local Time) from KCKF Reporting Station
Clear Clear  
Wind Chill: 36°   Ceiling: Unl
Heat Index: 36°   Visibility: 10mi
Dew Point: 33°   Wind: 3mph
Humidity: 89%   Direction: 240°WSW
Pressure: 29.95"   Gusts: NA
Location:  31.83°N, 83.74°W
Report Text: KCKF 271015Z AUTO 24003KT 10SM CLR 02/01 A2995 RMK AO2 T00220005
Loading
Personal Weather Stations






























Interactive Weather Map New forecast layout! Learn more

10-Day Weather Forecast

Advertisements
Track Severe Weather on mobile